createdAt,value
2022-09-12T05:04:44.928Z,15.30
2022-09-12T05:09:47.162Z,15.30
2022-09-12T05:14:48.974Z,15.30
2022-09-12T05:19:50.966Z,15.20
2022-09-12T05:24:52.730Z,15.20
2022-09-12T05:29:54.473Z,15.20
2022-09-12T05:34:56.268Z,15.20
2022-09-12T05:39:58.658Z,15.20
2022-09-12T05:45:00.626Z,15.20
2022-09-12T05:50:02.588Z,15.20
2022-09-12T05:55:04.843Z,15.20
2022-09-12T06:00:09.842Z,15.20
2022-09-12T06:05:11.763Z,15.20
2022-09-12T06:10:13.566Z,15.20
2022-09-12T06:15:16.591Z,15.10
2022-09-12T06:20:20.246Z,15.10
2022-09-12T06:25:22.268Z,15.00
2022-09-12T06:30:25.576Z,15.00
2022-09-12T06:35:27.610Z,15.00
2022-09-12T06:40:32.868Z,15.00
2022-09-12T06:45:34.617Z,15.00
2022-09-12T06:50:36.407Z,15.00
2022-09-12T06:55:38.513Z,15.00
2022-09-12T07:00:40.351Z,15.10
2022-09-12T07:05:42.786Z,15.10
2022-09-12T07:10:44.698Z,15.20
2022-09-12T07:15:46.473Z,15.20
2022-09-12T07:20:48.246Z,15.20
2022-09-12T07:25:54.483Z,15.30
2022-09-12T07:30:57.034Z,15.40
2022-09-12T07:36:07.346Z,15.50
2022-09-12T07:41:35.380Z,15.60
2022-09-12T07:46:37.233Z,15.70
2022-09-12T07:51:39.191Z,15.80
2022-09-12T07:56:43.034Z,15.90
2022-09-12T08:01:44.969Z,16.10
2022-09-12T08:06:46.806Z,16.20
2022-09-12T08:11:48.676Z,16.40
2022-09-12T08:16:50.570Z,16.50
2022-09-12T08:21:52.383Z,16.70
2022-09-12T08:26:54.178Z,16.90
2022-09-12T08:31:57.383Z,17.00
2022-09-12T08:36:59.772Z,17.20
2022-09-12T08:42:03.363Z,17.40
2022-09-12T08:47:21.405Z,17.60
2022-09-12T08:52:39.781Z,17.90
2022-09-12T08:57:41.977Z,18.10
2022-09-12T09:02:46.861Z,18.20
2022-09-12T09:08:22.759Z,18.50
2022-09-12T09:13:56.100Z,18.70
2022-09-12T09:19:01.290Z,18.90
2022-09-12T09:24:10.606Z,19.10
2022-09-12T09:29:21.276Z,19.30
2022-09-12T09:34:25.266Z,19.50
2022-09-12T09:39:36.873Z,19.70
2022-09-12T09:44:39.059Z,19.90
2022-09-12T09:49:40.967Z,20.10
2022-09-12T09:54:49.582Z,20.30
2022-09-12T09:59:51.426Z,20.60
2022-09-12T10:04:55.449Z,20.80
2022-09-12T10:10:15.262Z,21.00
2022-09-12T10:15:22.208Z,21.30
2022-09-12T10:20:36.449Z,21.50
2022-09-12T10:25:38.392Z,21.70
2022-09-12T10:30:51.711Z,21.90
2022-09-12T10:35:55.126Z,22.20
2022-09-12T10:40:59.770Z,22.50
2022-09-12T10:46:19.865Z,22.70
2022-09-12T10:51:24.742Z,23.10
2022-09-12T10:56:35.146Z,23.40
2022-09-12T11:01:45.236Z,23.70
2022-09-12T11:07:43.921Z,24.10
2022-09-12T11:12:58.461Z,24.30
2022-09-12T11:18:58.134Z,24.60
2022-09-12T11:24:02.655Z,24.80
2022-09-12T11:29:36.446Z,25.10
2022-09-12T11:35:08.854Z,25.20
2022-09-12T11:40:23.080Z,25.40
2022-09-12T11:45:37.274Z,25.60
2022-09-12T11:50:39.069Z,25.80
2022-09-12T11:55:53.992Z,26.00
2022-09-12T12:00:59.377Z,26.10
2022-09-12T12:06:21.407Z,26.20
2022-09-12T12:11:28.562Z,26.40
2022-09-12T12:16:35.077Z,26.60
2022-09-12T12:21:44.882Z,26.60
2022-09-12T12:26:59.398Z,26.70
2022-09-12T12:32:04.057Z,26.70
2022-09-12T12:37:21.214Z,26.70
2022-09-12T12:42:36.575Z,26.70
2022-09-12T12:47:38.438Z,26.70
2022-09-12T12:52:50.520Z,26.70
2022-09-12T12:58:23.105Z,26.70
2022-09-12T13:03:30.339Z,26.80
2022-09-12T13:08:38.943Z,27.00
2022-09-12T13:13:50.656Z,27.00
2022-09-12T13:18:52.811Z,27.10
2022-09-12T13:24:12.499Z,27.10
2022-09-12T13:29:19.844Z,27.10
2022-09-12T13:34:34.592Z,27.20
2022-09-12T13:39:50.389Z,27.30
2022-09-12T13:45:16.981Z,27.10
2022-09-12T13:51:02.158Z,27.10
2022-09-12T13:56:04.060Z,27.20
2022-09-12T14:01:13.124Z,27.20
2022-09-12T14:06:16.571Z,27.30
2022-09-12T14:11:44.476Z,27.30
2022-09-12T14:16:50.261Z,27.20
2022-09-12T14:21:57.414Z,27.20
2022-09-12T14:27:00.134Z,27.20
2022-09-12T14:32:03.800Z,27.20
2022-09-12T14:37:06.615Z,27.30
2022-09-12T14:42:18.485Z,27.40
2022-09-12T14:47:23.029Z,27.40
2022-09-12T14:52:29.344Z,27.40
2022-09-12T14:57:38.862Z,27.40
2022-09-12T15:02:42.501Z,27.40
2022-09-12T15:07:50.415Z,27.30
2022-09-12T15:13:10.933Z,27.30
2022-09-12T15:18:13.920Z,27.20
2022-09-12T15:23:21.200Z,27.10
2022-09-12T15:28:24.130Z,27.00
2022-09-12T15:33:26.109Z,27.00
2022-09-12T15:38:27.954Z,27.00
2022-09-12T15:43:29.773Z,27.10
2022-09-12T15:48:31.592Z,27.00
2022-09-12T15:53:33.620Z,27.10
2022-09-12T15:58:35.735Z,26.90
2022-09-12T16:03:37.730Z,26.80
2022-09-12T16:08:39.525Z,26.80
2022-09-12T16:13:41.355Z,26.80
2022-09-12T16:18:43.207Z,26.70
2022-09-12T16:23:46.617Z,26.60
2022-09-12T16:28:49.401Z,26.50
2022-09-12T16:33:51.484Z,26.40
2022-09-12T16:38:54.102Z,26.20
2022-09-12T16:43:56.070Z,26.10
2022-09-12T16:48:58.784Z,25.90
2022-09-12T16:54:00.725Z,25.80
2022-09-12T16:59:04.201Z,25.50
2022-09-12T17:04:06.789Z,25.50
2022-09-12T17:09:10.671Z,25.30
2022-09-12T17:14:12.736Z,25.30
2022-09-12T17:19:20.836Z,25.10
2022-09-12T17:24:23.215Z,25.00
2022-09-12T17:29:25.044Z,24.90
2022-09-12T17:34:26.942Z,24.90
2022-09-12T17:39:28.826Z,24.70
2022-09-12T17:44:30.672Z,24.70
2022-09-12T17:49:33.564Z,24.60
2022-09-12T17:54:35.354Z,24.50
2022-09-12T17:59:37.326Z,24.30
2022-09-12T18:04:41.134Z,24.30
2022-09-12T18:09:43.443Z,24.20
2022-09-12T18:14:45.497Z,24.10
2022-09-12T18:19:53.375Z,23.90
2022-09-12T18:24:55.590Z,23.90
2022-09-12T18:30:19.501Z,23.70
2022-09-12T18:35:19.376Z,23.60
2022-09-12T18:40:21.229Z,23.50
2022-09-12T18:45:23.128Z,23.30
2022-09-12T18:50:25.338Z,23.30
2022-09-12T18:55:27.181Z,23.10
2022-09-12T19:00:29.085Z,23.00
